createdAt,value
2022-10-18T00:00:17.247Z,6.87
2022-10-18T00:02:52.908Z,6.85
2022-10-18T00:05:27.956Z,6.82
2022-10-18T00:08:08.382Z,6.90
2022-10-18T00:10:46.311Z,6.78
2022-10-18T00:13:24.362Z,6.74
2022-10-18T00:16:03.450Z,6.79
2022-10-18T00:18:37.663Z,6.72
2022-10-18T00:21:14.690Z,6.68
2022-10-18T00:23:57.237Z,6.71
2022-10-18T00:26:32.797Z,6.62
2022-10-18T00:29:18.790Z,6.58
2022-10-18T00:31:55.060Z,6.55
2022-10-18T00:34:36.123Z,6.52
2022-10-18T00:37:21.674Z,6.48
2022-10-18T00:40:04.105Z,6.44
2022-10-18T00:42:41.920Z,6.40
2022-10-18T00:45:29.927Z,6.36
2022-10-18T00:48:07.662Z,6.34
2022-10-18T00:50:50.680Z,6.32
2022-10-18T00:53:30.036Z,6.29
2022-10-18T00:56:15.304Z,6.29
2022-10-18T00:58:59.470Z,6.25
2022-10-18T01:01:42.961Z,6.24
2022-10-18T01:04:22.165Z,6.23
2022-10-18T01:07:09.225Z,6.22
2022-10-18T01:09:49.575Z,6.17
2022-10-18T01:12:55.995Z,6.17
2022-10-18T01:16:13.571Z,6.13
2022-10-18T01:18:51.518Z,6.12
2022-10-18T01:21:43.867Z,6.12
2022-10-18T01:24:48.888Z,6.11
2022-10-18T01:27:57.872Z,6.11
2022-10-18T01:30:52.289Z,6.13
2022-10-18T01:34:08.540Z,6.11
2022-10-18T01:36:52.489Z,6.14
2022-10-18T01:39:28.502Z,6.09
2022-10-18T01:42:13.138Z,6.12
2022-10-18T01:44:53.549Z,6.17
2022-10-18T01:47:38.476Z,6.14
2022-10-18T01:50:13.969Z,6.18
2022-10-18T01:53:00.459Z,6.20
2022-10-18T01:55:52.730Z,6.22
2022-10-18T01:58:41.003Z,6.20
2022-10-18T02:01:31.364Z,6.20
2022-10-18T02:04:28.133Z,6.16
2022-10-18T02:07:25.827Z,6.17
2022-10-18T02:10:29.205Z,6.09
2022-10-18T02:13:10.218Z,6.06
2022-10-18T02:15:51.021Z,6.04
2022-10-18T02:18:51.983Z,5.98
2022-10-18T02:21:40.965Z,5.92
2022-10-18T02:24:21.128Z,5.86
2022-10-18T02:26:58.742Z,5.84
2022-10-18T02:29:42.028Z,5.78
2022-10-18T02:32:43.171Z,5.74
2022-10-18T02:35:33.216Z,5.72
2022-10-18T02:38:18.752Z,5.71
2022-10-18T02:41:02.836Z,5.72
2022-10-18T02:43:46.184Z,5.63
2022-10-18T02:46:28.004Z,5.60
2022-10-18T02:49:17.942Z,5.57
2022-10-18T02:51:56.503Z,5.53
2022-10-18T02:54:41.811Z,5.54
2022-10-18T02:57:33.836Z,5.53
2022-10-18T03:00:15.821Z,5.54
2022-10-18T03:03:13.144Z,5.53
2022-10-18T03:05:54.445Z,5.52
2022-10-18T03:08:32.478Z,5.50
2022-10-18T03:11:07.452Z,5.50
2022-10-18T03:13:45.333Z,5.48
2022-10-18T03:16:31.332Z,5.43
2022-10-18T03:19:15.820Z,5.44
2022-10-18T03:21:54.403Z,5.41
2022-10-18T03:24:37.607Z,5.37
2022-10-18T03:27:25.727Z,5.38
2022-10-18T03:30:05.462Z,5.39
2022-10-18T03:32:41.050Z,5.43
2022-10-18T03:35:24.175Z,5.40
2022-10-18T03:38:13.084Z,5.38
2022-10-18T03:40:52.071Z,5.34
2022-10-18T03:43:27.798Z,5.30
2022-10-18T03:46:00.615Z,5.41
2022-10-18T03:48:52.658Z,5.30
2022-10-18T03:51:36.148Z,5.23
2022-10-18T03:54:14.165Z,5.31
2022-10-18T03:56:50.570Z,5.22
2022-10-18T03:59:31.472Z,5.22
2022-10-18T04:02:15.342Z,5.21
2022-10-18T04:04:50.648Z,5.20
2022-10-18T04:07:38.385Z,5.25
2022-10-18T04:10:18.821Z,5.27
2022-10-18T04:12:59.827Z,5.32
2022-10-18T04:15:35.601Z,5.17
2022-10-18T04:18:10.237Z,5.18
2022-10-18T04:20:57.076Z,5.18
2022-10-18T04:23:36.422Z,5.22
2022-10-18T04:26:22.876Z,5.22
2022-10-18T04:29:02.953Z,5.19
2022-10-18T04:31:30.064Z,5.19
2022-10-18T04:34:02.176Z,5.20
2022-10-18T04:36:40.154Z,5.22
2022-10-18T04:39:27.008Z,5.25
2022-10-18T04:42:13.711Z,5.21
2022-10-18T04:44:48.519Z,5.28
2022-10-18T04:47:26.374Z,5.37
2022-10-18T04:50:05.294Z,5.36
2022-10-18T04:52:58.499Z,5.32
2022-10-18T04:55:34.277Z,5.33
2022-10-18T04:58:13.329Z,5.36
2022-10-18T05:00:50.376Z,5.37
2022-10-18T05:03:39.123Z,5.38
2022-10-18T05:06:25.607Z,5.36
2022-10-18T05:09:18.673Z,5.26
2022-10-18T05:12:10.436Z,5.28
2022-10-18T05:14:46.325Z,5.23
2022-10-18T05:17:22.404Z,5.23
2022-10-18T05:19:58.239Z,5.21
2022-10-18T05:22:46.285Z,5.19
2022-10-18T05:25:18.608Z,5.26
2022-10-18T05:28:10.522Z,5.27
2022-10-18T05:30:55.161Z,5.29
2022-10-18T05:33:30.755Z,5.27
2022-10-18T05:36:10.541Z,5.30
2022-10-18T05:38:48.920Z,5.35
2022-10-18T05:41:31.858Z,5.33
2022-10-18T05:44:19.131Z,5.36
2022-10-18T05:46:57.353Z,5.42
2022-10-18T05:49:47.301Z,5.40
2022-10-18T05:52:40.252Z,5.42
2022-10-18T05:55:18.171Z,5.58
2022-10-18T05:58:00.804Z,5.71
2022-10-18T06:00:41.539Z,5.77
2022-10-18T06:03:20.336Z,5.84
2022-10-18T06:06:10.913Z,5.97
2022-10-18T06:08:55.425Z,6.13
2022-10-18T06:11:30.897Z,6.25
2022-10-18T06:14:05.646Z,6.46
2022-10-18T06:16:46.616Z,6.64
2022-10-18T06:19:29.895Z,6.79
2022-10-18T06:22:20.694Z,6.96
2022-10-18T06:24:55.061Z,7.11
2022-10-18T06:27:40.973Z,7.31
2022-10-18T06:30:13.005Z,7.50
2022-10-18T06:32:46.405Z,7.67
2022-10-18T06:35:21.540Z,7.81
2022-10-18T06:38:15.858Z,8.00
2022-10-18T06:40:51.171Z,8.22
2022-10-18T06:43:44.815Z,8.42
2022-10-18T06:46:29.154Z,8.60
2022-10-18T06:49:02.376Z,8.81
2022-10-18T06:51:45.626Z,9.00
2022-10-18T06:54:33.379Z,9.22
2022-10-18T06:57:10.731Z,9.40
2022-10-18T06:59:58.251Z,9.56
2022-10-18T07:02:41.248Z,9.74
2022-10-18T07:05:22.953Z,9.91
2022-10-18T07:07:55.674Z,10.05
2022-10-18T07:10:39.084Z,10.22
2022-10-18T07:13:31.588Z,10.38
2022-10-18T07:16:26.773Z,10.52
2022-10-18T07:19:04.830Z,10.71
2022-10-18T07:21:43.236Z,10.84
2022-10-18T07:24:21.676Z,11.04
2022-10-18T07:27:10.318Z,11.15
2022-10-18T07:29:48.774Z,11.23
2022-10-18T07:32:33.774Z,11.36
2022-10-18T07:35:20.853Z,11.58
2022-10-18T07:38:07.679Z,11.74
2022-10-18T07:40:51.308Z,11.85
2022-10-18T07:43:34.373Z,12.14
2022-10-18T07:46:17.440Z,12.37
2022-10-18T07:49:05.703Z,12.57
2022-10-18T07:51:42.846Z,12.82
2022-10-18T07:54:22.399Z,12.94
2022-10-18T07:57:02.686Z,13.11
2022-10-18T07:59:46.347Z,13.25
2022-10-18T08:02:21.390Z,13.31
2022-10-18T08:05:05.305Z,13.34
2022-10-18T08:07:40.269Z,13.52
2022-10-18T08:10:31.254Z,13.66
2022-10-18T08:13:08.924Z,13.83
2022-10-18T08:15:48.484Z,13.89
2022-10-18T08:18:26.860Z,13.85
2022-10-18T08:21:19.777Z,13.92
2022-10-18T08:23:55.110Z,13.96
2022-10-18T08:26:41.825Z,14.09
2022-10-18T08:29:29.146Z,14.23
2022-10-18T08:32:05.733Z,14.41
2022-10-18T08:34:49.700Z,14.49
2022-10-18T08:37:27.008Z,14.40
2022-10-18T08:40:01.902Z,14.58
2022-10-18T08:42:58.938Z,14.69
2022-10-18T08:45:42.251Z,14.76
2022-10-18T08:48:22.346Z,14.95
2022-10-18T08:50:57.702Z,15.02
2022-10-18T08:53:40.091Z,15.08
2022-10-18T08:56:21.563Z,15.22
2022-10-18T08:59:06.141Z,15.23
2022-10-18T09:01:58.979Z,15.44
2022-10-18T09:04:54.221Z,15.55
2022-10-18T09:07:52.603Z,15.58
2022-10-18T09:10:45.720Z,15.74
2022-10-18T09:13:47.761Z,15.92
2022-10-18T09:16:47.602Z,16.06
2022-10-18T09:19:35.316Z,16.21
2022-10-18T09:22:42.167Z,16.27
2022-10-18T09:25:25.515Z,16.21
2022-10-18T09:28:42.003Z,16.36
2022-10-18T09:31:31.310Z,16.46
2022-10-18T09:34:26.738Z,16.58
2022-10-18T09:37:15.346Z,16.76
2022-10-18T09:40:05.993Z,16.87
2022-10-18T09:42:45.305Z,16.82
2022-10-18T09:45:32.024Z,16.87
2022-10-18T09:48:14.123Z,17.04
2022-10-18T09:51:11.188Z,17.03
2022-10-18T09:54:38.440Z,17.18
2022-10-18T09:57:28.858Z,17.33
2022-10-18T10:00:04.296Z,17.44
2022-10-18T10:02:39.621Z,17.51
2022-10-18T10:05:23.602Z,17.55
2022-10-18T10:08:05.501Z,17.73
2022-10-18T10:10:56.564Z,17.74
2022-10-18T10:13:33.300Z,17.87
2022-10-18T10:16:13.934Z,17.93
2022-10-18T10:19:04.617Z,17.84
2022-10-18T10:21:50.111Z,18.03
2022-10-18T10:24:30.280Z,18.17
2022-10-18T10:27:32.385Z,18.28
2022-10-18T10:30:26.484Z,18.40
2022-10-18T10:33:03.642Z,18.37
2022-10-18T10:35:53.403Z,18.38
2022-10-18T10:38:34.671Z,18.47
2022-10-18T10:43:54.723Z,18.65
2022-10-18T10:46:39.445Z,18.76
2022-10-18T10:49:39.590Z,18.83
2022-10-18T10:52:36.850Z,18.96
2022-10-18T10:55:38.359Z,19.09
2022-10-18T10:58:26.641Z,19.14
2022-10-18T11:01:21.520Z,19.25
2022-10-18T11:04:28.243Z,19.27
2022-10-18T11:07:39.508Z,19.26
2022-10-18T11:10:14.249Z,19.33
2022-10-18T11:13:04.415Z,19.34
2022-10-18T11:15:53.101Z,19.36
2022-10-18T11:18:34.704Z,19.37
2022-10-18T11:21:11.913Z,19.42
2022-10-18T11:23:54.196Z,19.36
2022-10-18T11:27:08.611Z,19.40
2022-10-18T11:29:57.126Z,19.40
2022-10-18T11:32:54.498Z,19.57
2022-10-18T11:36:03.522Z,19.59
2022-10-18T11:38:57.277Z,19.61
2022-10-18T11:42:13.748Z,19.76
2022-10-18T11:44:51.866Z,19.66
2022-10-18T11:47:56.572Z,19.59
2022-10-18T11:50:50.110Z,19.57
2022-10-18T11:53:37.659Z,19.58
2022-10-18T11:56:34.377Z,19.50
2022-10-18T11:59:24.258Z,19.57
2022-10-18T12:02:39.673Z,19.65
2022-10-18T12:05:29.748Z,19.72
2022-10-18T12:08:11.358Z,19.65
2022-10-18T12:11:04.981Z,19.67
2022-10-18T12:13:59.298Z,19.71
2022-10-18T12:17:20.214Z,19.61
2022-10-18T12:19:42.865Z,19.72
2022-10-18T12:22:33.258Z,19.55
2022-10-18T12:25:19.617Z,19.65
2022-10-18T12:28:06.310Z,19.64
2022-10-18T12:30:57.660Z,19.66
2022-10-18T12:33:44.703Z,19.74
2022-10-18T12:36:44.452Z,19.86
2022-10-18T12:40:08.576Z,19.79
2022-10-18T12:42:50.144Z,19.87
2022-10-18T12:45:47.498Z,19.77
2022-10-18T12:48:42.414Z,19.98
2022-10-18T12:51:28.620Z,20.09
2022-10-18T12:54:22.638Z,20.01
2022-10-18T12:56:57.656Z,19.98
2022-10-18T12:59:44.508Z,20.15
2022-10-18T13:02:24.517Z,20.17
2022-10-18T13:05:02.557Z,20.27
2022-10-18T13:07:41.053Z,20.45
2022-10-18T13:10:16.826Z,20.44
2022-10-18T13:13:29.575Z,20.43
2022-10-18T13:16:30.050Z,20.54
2022-10-18T13:19:25.302Z,20.73
2022-10-18T13:22:35.856Z,20.64
2022-10-18T13:25:21.826Z,20.59
2022-10-18T13:28:02.781Z,20.70
2022-10-18T13:31:13.955Z,20.64
2022-10-18T13:33:52.080Z,20.54
2022-10-18T13:36:29.948Z,20.80
2022-10-18T13:39:07.685Z,20.71
2022-10-18T13:41:55.123Z,20.84
2022-10-18T13:44:55.089Z,20.92
2022-10-18T13:47:42.767Z,20.84
2022-10-18T13:50:28.541Z,20.87
2022-10-18T13:53:27.228Z,20.85
2022-10-18T13:56:23.651Z,20.95
2022-10-18T13:59:20.380Z,20.91
2022-10-18T14:02:49.421Z,20.83
2022-10-18T14:11:25.960Z,20.45
2022-10-18T14:14:09.082Z,20.62
2022-10-18T14:17:25.406Z,20.59
2022-10-18T14:20:04.961Z,20.60
2022-10-18T14:22:54.031Z,20.53
2022-10-18T14:25:35.898Z,20.54
2022-10-18T14:28:27.425Z,20.58
2022-10-18T14:31:11.913Z,20.50
2022-10-18T14:33:59.738Z,20.28
2022-10-18T14:36:42.968Z,20.14
2022-10-18T14:39:38.386Z,20.04
2022-10-18T14:42:23.466Z,19.94
2022-10-18T14:45:00.643Z,20.11
2022-10-18T14:47:48.330Z,20.13
2022-10-18T14:50:30.902Z,20.14
2022-10-18T14:53:14.021Z,20.13
2022-10-18T14:56:03.762Z,20.19
2022-10-18T14:58:48.398Z,20.16
2022-10-18T15:01:40.407Z,20.02
2022-10-18T15:04:26.262Z,19.86
2022-10-18T15:07:15.937Z,19.86
2022-10-18T15:09:58.961Z,19.59
2022-10-18T15:12:41.220Z,19.11
2022-10-18T15:15:30.485Z,18.74
2022-10-18T15:18:08.369Z,18.46
2022-10-18T15:20:51.619Z,18.08
2022-10-18T15:23:50.312Z,17.43
2022-10-18T15:26:30.438Z,17.06
2022-10-18T15:29:04.574Z,16.72
2022-10-18T15:31:46.072Z,16.38
2022-10-18T15:34:26.979Z,16.11
2022-10-18T15:37:03.173Z,15.80
2022-10-18T15:39:41.417Z,15.63
2022-10-18T15:42:45.791Z,15.48
2022-10-18T15:48:48.288Z,15.16
2022-10-18T15:52:11.874Z,14.98
2022-10-18T15:54:44.766Z,14.73
2022-10-18T15:57:24.814Z,14.48
2022-10-18T16:00:07.635Z,14.44
2022-10-18T16:02:50.860Z,14.33
2022-10-18T16:05:25.741Z,14.19
2022-10-18T16:08:08.124Z,14.05
2022-10-18T16:10:46.620Z,13.91
2022-10-18T16:13:21.053Z,13.73
2022-10-18T16:16:01.726Z,13.51
2022-10-18T16:18:38.772Z,13.40
2022-10-18T16:21:32.270Z,13.23
2022-10-18T16:24:18.378Z,13.07
2022-10-18T16:27:04.363Z,12.95
2022-10-18T16:29:47.640Z,12.81
2022-10-18T16:32:22.775Z,12.72
2022-10-18T16:34:54.999Z,12.51
2022-10-18T16:37:40.057Z,12.36
2022-10-18T16:40:28.881Z,12.19
2022-10-18T16:43:05.383Z,12.05
2022-10-18T16:45:42.219Z,12.02
2022-10-18T16:48:24.703Z,11.90
2022-10-18T16:51:08.377Z,11.68
2022-10-18T16:53:40.205Z,11.62
2022-10-18T16:56:34.335Z,11.54
2022-10-18T16:59:10.733Z,11.46
2022-10-18T17:01:56.735Z,11.38
2022-10-18T17:04:31.861Z,11.26
2022-10-18T17:07:03.610Z,11.08
2022-10-18T17:09:41.207Z,11.02
2022-10-18T17:12:15.620Z,10.92
2022-10-18T17:14:51.025Z,10.82
2022-10-18T17:17:37.691Z,10.83
2022-10-18T17:20:35.343Z,10.73
2022-10-18T17:23:17.572Z,10.69
2022-10-18T17:26:08.523Z,10.57
2022-10-18T17:29:10.826Z,10.41
2022-10-18T17:31:46.347Z,10.33
2022-10-18T17:34:21.315Z,10.21
2022-10-18T17:36:59.831Z,10.14
2022-10-18T17:39:46.779Z,10.07
2022-10-18T17:42:22.018Z,9.95
2022-10-18T17:44:57.076Z,9.78
2022-10-18T17:47:38.172Z,9.88
2022-10-18T17:50:15.558Z,9.86
2022-10-18T17:52:59.251Z,9.82
2022-10-18T17:55:39.757Z,9.68
2022-10-18T17:58:22.478Z,9.58
2022-10-18T18:00:57.683Z,9.55
2022-10-18T18:03:29.912Z,9.48
2022-10-18T18:06:16.475Z,9.46
2022-10-18T18:08:58.075Z,9.40
2022-10-18T18:11:37.184Z,9.35
2022-10-18T18:14:24.410Z,9.30
2022-10-18T18:16:56.487Z,9.26
2022-10-18T18:19:33.884Z,9.23
2022-10-18T18:22:09.385Z,9.23
2022-10-18T18:24:44.250Z,9.13
2022-10-18T18:27:13.949Z,9.06
2022-10-18T18:30:03.247Z,9.00
2022-10-18T18:32:51.204Z,8.90
2022-10-18T18:35:40.961Z,8.84
2022-10-18T18:38:14.699Z,8.75
2022-10-18T18:40:50.413Z,8.74
2022-10-18T18:43:23.064Z,8.67
2022-10-18T18:46:07.091Z,8.61
2022-10-18T18:48:42.362Z,8.55
2022-10-18T18:51:25.075Z,8.47
2022-10-18T18:54:06.045Z,8.48
2022-10-18T18:56:47.273Z,8.40
2022-10-18T18:59:26.265Z,8.43
2022-10-18T19:02:03.740Z,8.39
2022-10-18T19:04:49.746Z,8.33
2022-10-18T19:07:22.528Z,8.35
2022-10-18T19:09:57.528Z,8.26
2022-10-18T19:12:40.332Z,8.23
2022-10-18T19:15:15.401Z,8.19
2022-10-18T19:18:08.284Z,8.13
2022-10-18T19:20:40.324Z,8.07
2022-10-18T19:23:13.128Z,8.02
2022-10-18T19:26:10.158Z,7.96
2022-10-18T19:28:51.306Z,7.92
2022-10-18T19:31:23.857Z,7.89
2022-10-18T19:34:04.097Z,7.86
2022-10-18T19:36:47.522Z,7.79
2022-10-18T19:39:28.429Z,7.70
2022-10-18T19:42:24.236Z,7.71
2022-10-18T19:44:58.827Z,7.69
2022-10-18T19:47:33.798Z,7.53
2022-10-18T19:50:12.826Z,7.58
2022-10-18T19:52:48.190Z,7.52
2022-10-18T19:55:31.034Z,7.46
2022-10-18T19:58:05.800Z,7.46
2022-10-18T20:00:57.428Z,7.44
2022-10-18T20:03:37.967Z,7.42
2022-10-18T20:06:16.778Z,7.41
2022-10-18T20:09:01.626Z,7.42
2022-10-18T20:11:40.480Z,7.38
2022-10-18T20:14:16.308Z,7.35
2022-10-18T20:16:54.410Z,7.34
2022-10-18T20:19:24.609Z,7.28
2022-10-18T20:22:07.531Z,7.28
2022-10-18T20:24:47.444Z,7.24
2022-10-18T20:27:22.965Z,7.24
2022-10-18T20:30:02.064Z,7.23
2022-10-18T20:32:36.925Z,7.19
2022-10-18T20:35:25.517Z,7.16
2022-10-18T20:38:06.322Z,7.13
2022-10-18T20:40:41.490Z,7.13
2022-10-18T20:43:19.629Z,7.12
2022-10-18T20:46:04.291Z,7.08
2022-10-18T20:48:39.700Z,7.09
2022-10-18T20:51:19.158Z,7.22
2022-10-18T20:54:06.374Z,7.16
2022-10-18T20:56:45.680Z,7.07
2022-10-18T20:59:23.537Z,7.02
2022-10-18T21:01:58.507Z,6.98
2022-10-18T21:04:33.775Z,6.93
2022-10-18T21:07:17.857Z,6.88
2022-10-18T21:09:56.372Z,6.88
2022-10-18T21:12:37.722Z,6.86
2022-10-18T21:15:12.799Z,6.84
2022-10-18T21:17:59.701Z,6.81
2022-10-18T21:20:43.465Z,6.79
2022-10-18T21:23:29.802Z,6.76
2022-10-18T21:26:08.121Z,6.74
2022-10-18T21:28:54.496Z,6.70
2022-10-18T21:31:27.091Z,6.65
2022-10-18T21:34:13.046Z,6.67
2022-10-18T21:36:52.319Z,6.62
2022-10-18T21:39:32.983Z,6.65
2022-10-18T21:42:05.346Z,6.62
2022-10-18T21:44:40.499Z,6.65
2022-10-18T21:47:18.556Z,6.65
2022-10-18T21:50:04.593Z,6.65
2022-10-18T21:52:42.984Z,6.70
2022-10-18T21:55:29.021Z,6.73
2022-10-18T21:58:06.477Z,6.77
2022-10-18T22:00:40.884Z,6.80
2022-10-18T22:03:23.299Z,6.86
2022-10-18T22:06:13.720Z,6.86
2022-10-18T22:08:57.674Z,6.93
2022-10-18T22:11:41.816Z,6.89
2022-10-18T22:14:23.057Z,6.99
2022-10-18T22:17:05.306Z,7.03
2022-10-18T22:19:39.795Z,7.08
2022-10-18T22:22:25.826Z,7.12
2022-10-18T22:25:01.103Z,7.16
2022-10-18T22:27:31.441Z,7.22
2022-10-18T22:30:07.660Z,7.41
2022-10-18T22:32:42.839Z,7.42
2022-10-18T22:35:17.864Z,7.37
2022-10-18T22:37:58.538Z,7.40
2022-10-18T22:40:42.213Z,7.38
2022-10-18T22:43:18.334Z,7.37
2022-10-18T22:45:52.889Z,7.54
2022-10-18T22:48:33.272Z,7.48
2022-10-18T22:51:12.236Z,7.49
2022-10-18T22:53:52.044Z,7.46
2022-10-18T22:56:32.397Z,7.40
2022-10-18T22:59:16.338Z,7.42
2022-10-18T23:01:53.081Z,7.46
2022-10-18T23:04:39.974Z,7.47
2022-10-18T23:07:16.344Z,7.53
2022-10-18T23:09:49.159Z,7.50
2022-10-18T23:12:31.254Z,7.61
2022-10-18T23:15:12.340Z,7.57
2022-10-18T23:18:02.181Z,7.61
2022-10-18T23:20:47.602Z,7.59
2022-10-18T23:23:23.407Z,7.54
2022-10-18T23:26:10.124Z,7.48
2022-10-18T23:28:46.554Z,7.46
2022-10-18T23:31:34.866Z,7.45
2022-10-18T23:34:13.606Z,7.42
2022-10-18T23:36:51.728Z,7.35
2022-10-18T23:39:34.096Z,7.33
2022-10-18T23:42:09.111Z,7.29
2022-10-18T23:44:53.262Z,7.26
2022-10-18T23:47:31.250Z,7.23
2022-10-18T23:50:07.183Z,7.22
2022-10-18T23:52:47.608Z,7.24
2022-10-18T23:55:22.603Z,7.13
2022-10-18T23:58:03.044Z,7.16
